Time,TemperatureF,DewpointF,PressureIn,WindDirection,WindDirectionDegrees,WindSpeedMPH,WindSpeedGustMPH,Humidity,HourlyPrecipIn,Conditions,Clouds,dailyrainin,SoftwareType,DateUTC
2013-08-12 00:01:00,72.0,71.6,29.06,West,270,0.0,0.0,99,0.00,,,0.00,meteohub,2013-08-12 10:01:00,
2013-08-12 00:06:00,72.0,71.6,29.06,West,270,0.0,0.0,99,0.00,,,0.00,meteohub,2013-08-12 10:06:00,
2013-08-12 00:12:00,72.0,71.6,29.07,West,270,0.0,0.0,99,0.00,,,0.00,meteohub,2013-08-12 10:12:00,
2013-08-12 00:17:00,72.0,71.6,29.07,West,270,0.0,0.0,99,0.00,,,0.00,meteohub,2013-08-12 10:17:00,
2013-08-12 00:22:00,72.0,71.6,29.06,West,270,0.0,0.0,99,0.00,,,0.00,meteohub,2013-08-12 10:22:00,
2013-08-12 00:27:00,72.0,71.6,29.06,West,270,0.0,0.0,99,0.00,,,0.00,meteohub,2013-08-12 10:27:00,
2013-08-12 00:32:00,72.0,71.6,29.06,West,270,0.0,0.0,99,0.00,,,0.00,meteohub,2013-08-12 10:32:00,
2013-08-12 00:37:00,72.0,71.6,29.06,West,270,0.0,0.0,99,0.00,,,0.00,meteohub,2013-08-12 10:37:00,
2013-08-12 00:42:00,72.0,71.6,29.06,West,270,0.0,0.0,99,0.00,,,0.00,meteohub,2013-08-12 10:42:00,
2013-08-12 00:47:00,72.0,71.6,29.06,West,270,0.0,0.0,99,0.00,,,0.00,meteohub,2013-08-12 10:47:00,
2013-08-12 00:52:00,72.0,71.6,29.06,West,270,0.0,0.0,99,0.00,,,0.00,meteohub,2013-08-12 10:52:00,
2013-08-12 00:57:00,72.0,71.6,29.05,West,270,0.0,0.0,99,0.00,,,0.00,meteohub,2013-08-12 10:57:00,
2013-08-12 01:02:00,72.0,71.6,29.05,West,270,0.0,0.0,99,0.00,,,0.00,meteohub,2013-08-12 11:02:00,
2013-08-12 01:07:00,72.0,71.6,29.05,West,270,0.0,0.0,99,0.00,,,0.00,meteohub,2013-08-12 11:07:00,
2013-08-12 01:12:00,72.0,71.6,29.05,West,270,0.0,0.0,99,0.00,,,0.00,meteohub,2013-08-12 11:12:00,
2013-08-12 01:17:00,72.0,71.6,29.05,West,270,0.0,0.0,99,0.00,,,0.00,meteohub,2013-08-12 11:17:00,
2013-08-12 01:22:00,72.0,71.6,29.04,West,270,0.0,0.0,99,0.00,,,0.00,meteohub,2013-08-12 11:22:00,
2013-08-12 01:27:00,72.0,71.6,29.04,West,270,0.0,0.0,99,0.00,,,0.00,meteohub,2013-08-12 11:27:00,
2013-08-12 01:32:00,72.0,71.6,29.04,West,270,0.0,0.0,99,0.00,,,0.00,meteohub,2013-08-12 11:32:00,
2013-08-12 01:37:00,72.0,71.6,29.04,West,270,0.0,0.0,99,0.00,,,0.00,meteohub,2013-08-12 11:37:00,
2013-08-12 01:42:00,72.0,71.6,29.04,West,270,0.0,0.0,99,0.00,,,0.00,meteohub,2013-08-12 11:42:00,
2013-08-12 01:47:00,72.0,71.6,29.03,West,270,0.0,0.0,99,0.00,,,0.00,meteohub,2013-08-12 11:47:00,
2013-08-12 01:52:00,71.8,71.4,29.04,West,270,0.0,0.0,99,0.00,,,0.00,meteohub,2013-08-12 11:52:00,
2013-08-12 01:57:00,71.8,71.4,29.03,West,270,0.0,0.0,99,0.00,,,0.00,meteohub,2013-08-12 11:57:00,
2013-08-12 02:02:00,71.6,71.2,29.04,West,270,0.0,0.0,99,0.00,,,0.00,meteohub,2013-08-12 12:02:00,
2013-08-12 02:07:00,71.4,71.1,29.04,West,270,0.0,0.0,99,0.00,,,0.00,meteohub,2013-08-12 12:07:00,
2013-08-12 02:12:00,71.1,70.7,29.04,West,270,0.0,0.0,99,0.00,,,0.00,meteohub,2013-08-12 12:12:00,
2013-08-12 02:17:00,70.9,70.5,29.04,West,270,0.0,0.0,99,0.00,,,0.00,meteohub,2013-08-12 12:17:00,
2013-08-12 02:22:00,70.7,70.3,29.04,West,270,0.0,0.0,99,0.00,,,0.00,meteohub,2013-08-12 12:22:00,
2013-08-12 02:27:00,70.5,70.2,29.04,West,270,0.0,0.0,99,0.00,,,0.00,meteohub,2013-08-12 12:27:00,
2013-08-12 02:32:00,70.3,70.0,29.03,West,270,0.0,0.0,99,0.00,,,0.00,meteohub,2013-08-12 12:32:00,
2013-08-12 02:37:00,70.2,69.8,29.03,West,270,0.0,0.0,99,0.00,,,0.00,meteohub,2013-08-12 12:37:00,
2013-08-12 02:42:00,70.0,69.6,29.03,West,270,0.0,0.0,99,0.00,,,0.00,meteohub,2013-08-12 12:42:00,
2013-08-12 02:47:00,70.0,69.6,29.04,West,270,0.0,0.0,99,0.00,,,0.00,meteohub,2013-08-12 12:47:00,
2013-08-12 02:52:00,70.0,69.6,29.03,West,270,0.0,0.0,99,0.00,,,0.00,meteohub,2013-08-12 12:52:00,
2013-08-12 02:57:00,70.0,69.6,29.03,West,270,0.0,0.0,99,0.00,,,0.00,meteohub,2013-08-12 12:57:00,
2013-08-12 03:02:00,70.0,69.6,29.03,West,270,0.0,0.0,99,0.00,,,0.00,meteohub,2013-08-12 13:02:00,
2013-08-12 03:07:00,70.0,69.6,29.03,West,270,0.0,0.0,99,0.00,,,0.00,meteohub,2013-08-12 13:07:00,
2013-08-12 03:12:00,70.0,69.6,29.04,West,270,0.0,0.0,99,0.00,,,0.00,meteohub,2013-08-12 13:12:00,
2013-08-12 03:17:00,70.2,69.8,29.04,West,270,0.0,0.0,99,0.00,,,0.00,meteohub,2013-08-12 13:17:00,
2013-08-12 03:22:00,70.3,70.0,29.04,West,270,0.0,0.0,99,0.00,,,0.00,meteohub,2013-08-12 13:22:00,
2013-08-12 03:27:00,70.3,70.0,29.04,West,270,0.0,0.0,99,0.00,,,0.00,meteohub,2013-08-12 13:27:00,
2013-08-12 03:32:00,70.5,70.2,29.04,West,270,0.0,0.0,99,0.00,,,0.00,meteohub,2013-08-12 13:32:00,
2013-08-12 03:37:00,70.5,70.2,29.04,West,270,0.0,0.0,99,0.00,,,0.00,meteohub,2013-08-12 13:37:00,
2013-08-12 03:42:00,70.7,70.3,29.04,West,270,0.0,0.0,99,0.00,,,0.00,meteohub,2013-08-12 13:42:00,
2013-08-12 03:47:00,70.9,70.5,29.04,West,270,0.0,0.0,99,0.00,,,0.00,meteohub,2013-08-12 13:47:00,
2013-08-12 03:52:00,70.9,70.5,29.04,West,270,0.0,1.0,99,0.00,,,0.00,meteohub,2013-08-12 13:52:00,
2013-08-12 03:57:00,70.9,70.5,29.04,West,270,0.0,1.0,99,0.00,,,0.00,meteohub,2013-08-12 13:57:00,
2013-08-12 04:01:00,70.9,70.5,29.04,West,270,0.0,1.0,99,0.00,,,0.00,meteohub,2013-08-12 14:01:00,
2013-08-12 04:07:00,70.9,70.5,29.03,West,270,0.0,1.0,99,0.00,,,0.00,meteohub,2013-08-12 14:07:00,
2013-08-12 04:12:00,70.9,70.5,29.04,West,270,2.0,0.0,99,0.00,,,0.00,meteohub,2013-08-12 14:12:00,
2013-08-12 04:17:00,70.9,70.5,29.04,West,270,0.0,2.0,99,0.00,,,0.00,meteohub,2013-08-12 14:17:00,
2013-08-12 04:22:00,70.9,70.5,29.04,West,270,0.0,2.0,99,0.00,,,0.00,meteohub,2013-08-12 14:22:00,
2013-08-12 04:27:00,70.9,70.5,29.04,West,270,0.0,2.0,99,0.00,,,0.00,meteohub,2013-08-12 14:27:00,
2013-08-12 04:32:00,70.9,70.5,29.04,West,270,0.0,0.0,99,0.00,,,0.00,meteohub,2013-08-12 14:32:00,
2013-08-12 04:37:00,70.7,70.3,29.04,West,270,0.0,0.0,99,0.00,,,0.00,meteohub,2013-08-12 14:37:00,
2013-08-12 04:42:00,70.7,70.3,29.04,West,270,0.0,0.0,99,0.00,,,0.00,meteohub,2013-08-12 14:42:00,
2013-08-12 04:47:00,70.7,70.3,29.05,West,270,0.0,0.0,99,0.00,,,0.00,meteohub,2013-08-12 14:47:00,
2013-08-12 04:52:00,70.7,70.3,29.04,West,270,0.0,0.0,99,0.00,,,0.00,meteohub,2013-08-12 14:52:00,
2013-08-12 04:57:00,70.7,70.3,29.05,West,270,0.0,0.0,99,0.00,,,0.00,meteohub,2013-08-12 14:57:00,
2013-08-12 05:02:00,70.7,70.3,29.04,West,270,0.0,1.0,99,0.00,,,0.00,meteohub,2013-08-12 15:02:00,
2013-08-12 05:07:00,70.7,70.3,29.05,West,270,0.0,1.0,99,0.00,,,0.00,meteohub,2013-08-12 15:07:00,
2013-08-12 05:12:00,70.7,70.3,29.04,West,270,1.0,1.0,99,0.00,,,0.00,meteohub,2013-08-12 15:12:00,
2013-08-12 05:17:00,70.9,70.5,29.04,West,270,0.0,1.0,99,0.00,,,0.00,meteohub,2013-08-12 15:17:00,
2013-08-12 05:22:00,70.7,70.3,29.05,West,270,0.0,1.0,99,0.00,,,0.00,meteohub,2013-08-12 15:22:00,
2013-08-12 05:27:00,70.7,70.3,29.05,West,270,0.0,1.0,99,0.00,,,0.00,meteohub,2013-08-12 15:27:00,
2013-08-12 05:32:00,70.7,70.3,29.05,West,270,0.0,0.0,99,0.00,,,0.00,meteohub,2013-08-12 15:32:00,
2013-08-12 05:37:00,70.7,70.3,29.05,West,270,0.0,0.0,99,0.00,,,0.00,meteohub,2013-08-12 15:37:00,
2013-08-12 05:42:00,70.7,70.3,29.05,West,270,0.0,0.0,99,0.00,,,0.00,meteohub,2013-08-12 15:42:00,
2013-08-12 05:47:00,70.7,70.3,29.05,West,270,0.0,0.0,99,0.00,,,0.00,meteohub,2013-08-12 15:47:00,
2013-08-12 05:52:00,70.9,70.5,29.05,West,270,0.0,0.0,99,0.00,,,0.00,meteohub,2013-08-12 15:52:00,
2013-08-12 05:57:00,70.9,70.5,29.05,West,270,0.0,0.0,99,0.00,,,0.00,meteohub,2013-08-12 15:57:00,
2013-08-12 06:02:00,70.9,70.5,29.05,West,270,0.0,0.0,99,0.00,,,0.00,meteohub,2013-08-12 16:02:00,
2013-08-12 06:07:00,70.9,70.5,29.05,West,270,0.0,0.0,99,0.00,,,0.00,meteohub,2013-08-12 16:07:00,
2013-08-12 06:12:00,70.9,70.5,29.05,West,270,0.0,0.0,99,0.01,,,0.01,meteohub,2013-08-12 16:12:00,
2013-08-12 06:17:00,70.9,70.5,29.05,West,270,0.0,0.0,99,0.01,,,0.01,meteohub,2013-08-12 16:17:00,
2013-08-12 06:22:00,70.9,70.5,29.06,West,270,0.0,0.0,99,0.01,,,0.01,meteohub,2013-08-12 16:22:00,
2013-08-12 06:27:00,70.9,70.5,29.06,West,270,0.0,0.0,99,0.01,,,0.01,meteohub,2013-08-12 16:27:00,
2013-08-12 06:32:00,70.9,70.5,29.06,West,270,0.0,0.0,99,0.01,,,0.01,meteohub,2013-08-12 16:32:00,
2013-08-12 06:37:00,71.1,70.7,29.06,West,270,1.0,1.0,99,0.01,,,0.01,meteohub,2013-08-12 16:37:00,
2013-08-12 06:42:00,71.2,70.9,29.06,West,270,2.0,2.0,99,0.01,,,0.01,meteohub,2013-08-12 16:42:00,
2013-08-12 06:47:00,71.4,71.1,29.06,West,270,1.0,3.0,99,0.01,,,0.01,meteohub,2013-08-12 16:47:00,
2013-08-12 06:52:00,71.6,71.2,29.07,West,270,1.0,3.0,99,0.01,,,0.01,meteohub,2013-08-12 16:52:00,
2013-08-12 06:57:00,71.6,71.2,29.07,West,270,1.0,3.0,99,0.01,,,0.01,meteohub,2013-08-12 16:57:00,
2013-08-12 07:02:00,71.8,71.4,29.08,West,270,2.0,2.0,99,0.01,,,0.01,meteohub,2013-08-12 17:02:00,
2013-08-12 07:07:00,72.0,71.6,29.08,West,270,1.0,2.0,99,0.01,,,0.01,meteohub,2013-08-12 17:07:00,
2013-08-12 07:12:00,72.1,71.8,29.07,West,270,0.0,3.0,99,0.00,,,0.01,meteohub,2013-08-12 17:12:00,
2013-08-12 07:17:00,72.3,72.0,29.08,West,270,2.0,3.0,99,0.00,,,0.01,meteohub,2013-08-12 17:17:00,
2013-08-12 07:22:00,72.3,72.0,29.08,West,270,3.0,4.0,99,0.00,,,0.01,meteohub,2013-08-12 17:22:00,
2013-08-12 07:27:00,72.5,72.1,29.08,West,270,1.0,4.0,99,0.00,,,0.01,meteohub,2013-08-12 17:27:00,
2013-08-12 07:32:00,72.7,72.3,29.08,West,270,2.0,4.0,99,0.00,,,0.01,meteohub,2013-08-12 17:32:00,
2013-08-12 07:37:00,72.7,72.3,29.09,West,270,1.0,4.0,99,0.00,,,0.01,meteohub,2013-08-12 17:37:00,
2013-08-12 07:42:00,72.9,72.5,29.09,West,270,4.0,4.0,99,0.00,,,0.01,meteohub,2013-08-12 17:42:00,
2013-08-12 07:47:00,72.9,72.5,29.09,West,270,1.0,4.0,99,0.00,,,0.01,meteohub,2013-08-12 17:47:00,
2013-08-12 07:51:00,73.0,72.7,29.08,West,270,2.0,4.0,99,0.00,,,0.01,meteohub,2013-08-12 17:51:00,
2013-08-12 07:57:00,73.0,72.7,29.09,West,270,1.0,4.0,99,0.00,,,0.01,meteohub,2013-08-12 17:57:00,
2013-08-12 08:02:00,73.0,72.7,29.09,West,270,2.0,2.0,99,0.00,,,0.01,meteohub,2013-08-12 18:02:00,
2013-08-12 08:07:00,73.0,72.7,29.08,West,270,1.0,2.0,99,0.00,,,0.01,meteohub,2013-08-12 18:07:00,
2013-08-12 08:12:00,73.0,72.7,29.09,West,270,2.0,2.0,99,0.00,,,0.01,meteohub,2013-08-12 18:12:00,
2013-08-12 08:17:00,73.0,72.7,29.09,West,270,0.0,2.0,99,0.00,,,0.01,meteohub,2013-08-12 18:17:00,
2013-08-12 08:22:00,73.2,72.9,29.09,West,270,1.0,2.0,99,0.00,,,0.01,meteohub,2013-08-12 18:22:00,
2013-08-12 08:27:00,73.6,73.2,29.09,West,270,1.0,2.0,99,0.00,,,0.01,meteohub,2013-08-12 18:27:00,
2013-08-12 08:32:00,73.9,73.6,29.09,West,270,0.0,2.0,99,0.00,,,0.01,meteohub,2013-08-12 18:32:00,
2013-08-12 08:37:00,74.1,73.8,29.09,West,270,2.0,2.0,99,0.00,,,0.01,meteohub,2013-08-12 18:37:00,
2013-08-12 08:42:00,74.5,74.1,29.09,West,270,2.0,2.0,99,0.00,,,0.01,meteohub,2013-08-12 18:42:00,
2013-08-12 08:47:00,74.7,74.3,29.09,West,270,2.0,2.0,99,0.00,,,0.01,meteohub,2013-08-12 18:47:00,
2013-08-12 08:52:00,75.0,74.7,29.09,West,270,2.0,2.0,99,0.00,,,0.01,meteohub,2013-08-12 18:52:00,
2013-08-12 08:57:00,75.2,74.8,29.09,West,270,1.0,2.0,99,0.00,,,0.01,meteohub,2013-08-12 18:57:00,
2013-08-12 09:02:00,75.7,75.4,29.09,West,270,1.0,2.0,99,0.00,,,0.01,meteohub,2013-08-12 19:02:00,
2013-08-12 09:07:00,75.9,75.6,29.09,West,270,0.0,2.0,99,0.00,,,0.01,meteohub,2013-08-12 19:07:00,
2013-08-12 09:12:00,75.6,75.2,29.09,West,270,1.0,1.0,99,0.00,,,0.01,meteohub,2013-08-12 19:12:00,
2013-08-12 09:17:00,75.4,75.0,29.10,West,270,0.0,1.0,99,0.00,,,0.01,meteohub,2013-08-12 19:17:00,
2013-08-12 09:22:00,75.2,74.8,29.10,West,270,2.0,2.0,99,0.00,,,0.01,meteohub,2013-08-12 19:22:00,
2013-08-12 09:27:00,75.4,75.0,29.10,West,270,2.0,2.0,99,0.00,,,0.01,meteohub,2013-08-12 19:27:00,
2013-08-12 09:32:00,75.4,75.0,29.10,West,270,1.0,2.0,99,0.00,,,0.01,meteohub,2013-08-12 19:32:00,
2013-08-12 09:37:00,75.7,75.4,29.10,West,270,0.0,2.0,99,0.00,,,0.01,meteohub,2013-08-12 19:37:00,
2013-08-12 09:42:00,75.7,75.4,29.10,West,270,2.0,2.0,99,0.00,,,0.01,meteohub,2013-08-12 19:42:00,
2013-08-12 09:47:00,75.0,74.7,29.10,West,270,2.0,2.0,99,0.00,,,0.01,meteohub,2013-08-12 19:47:00,
2013-08-12 09:52:00,74.8,74.5,29.10,West,270,1.0,3.0,99,0.00,,,0.01,meteohub,2013-08-12 19:52:00,
2013-08-12 09:57:00,74.8,74.5,29.09,West,270,2.0,3.0,99,0.00,,,0.01,meteohub,2013-08-12 19:57:00,
2013-08-12 10:02:00,74.8,74.5,29.09,West,270,2.0,2.0,99,0.00,,,0.01,meteohub,2013-08-12 20:02:00,
2013-08-12 10:07:00,75.4,75.0,29.09,West,270,2.0,2.0,99,0.00,,,0.01,meteohub,2013-08-12 20:07:00,
2013-08-12 10:12:00,75.7,75.4,29.09,West,270,2.0,2.0,99,0.00,,,0.01,meteohub,2013-08-12 20:12:00,
2013-08-12 10:17:00,75.9,75.6,29.08,West,270,1.0,2.0,99,0.00,,,0.01,meteohub,2013-08-12 20:17:00,
2013-08-12 10:22:00,76.5,76.1,29.09,West,270,0.0,2.0,99,0.00,,,0.01,meteohub,2013-08-12 20:22:00,
2013-08-12 10:27:00,76.5,76.1,29.08,West,270,2.0,2.0,99,0.00,,,0.01,meteohub,2013-08-12 20:27:00,
2013-08-12 10:32:00,76.3,75.9,29.08,West,270,2.0,2.0,99,0.00,,,0.01,meteohub,2013-08-12 20:32:00,
2013-08-12 10:38:00,76.1,75.7,29.08,West,270,2.0,4.0,99,0.00,,,0.01,meteohub,2013-08-12 20:38:00,
2013-08-12 10:43:00,77.7,77.4,29.08,West,270,1.0,4.0,99,0.00,,,0.01,meteohub,2013-08-12 20:43:00,
2013-08-12 10:48:00,79.3,79.0,29.08,West,270,3.0,4.0,99,0.00,,,0.01,meteohub,2013-08-12 20:48:00,
2013-08-12 10:53:00,79.3,77.7,29.08,South,180,2.0,4.0,95,0.00,,,0.01,meteohub,2013-08-12 20:53:00,
2013-08-12 10:58:00,79.0,77.2,29.08,West,270,2.0,5.0,94,0.00,,,0.01,meteohub,2013-08-12 20:58:00,
2013-08-12 11:03:00,79.0,77.4,29.07,West,270,1.0,5.0,95,0.00,,,0.01,meteohub,2013-08-12 21:03:00,
2013-08-12 11:08:00,78.8,76.6,29.07,NW,315,1.0,4.0,93,0.00,,,0.01,meteohub,2013-08-12 21:08:00,
2013-08-12 11:13:00,78.6,76.5,29.07,NW,315,2.0,4.0,93,0.00,,,0.01,meteohub,2013-08-12 21:13:00,
2013-08-12 11:18:00,78.6,76.5,29.07,NW,315,3.0,4.0,93,0.00,,,0.01,meteohub,2013-08-12 21:18:00,
2013-08-12 11:23:00,78.4,76.3,29.07,NW,315,2.0,4.0,93,0.00,,,0.01,meteohub,2013-08-12 21:23:00,
2013-08-12 11:28:00,78.1,75.9,29.07,NW,315,2.0,4.0,93,0.00,,,0.01,meteohub,2013-08-12 21:28:00,
2013-08-12 11:33:00,77.9,75.7,29.06,NW,315,3.0,4.0,93,0.00,,,0.01,meteohub,2013-08-12 21:33:00,
2013-08-12 11:38:00,77.5,75.4,29.07,NW,315,2.0,4.0,93,0.00,,,0.01,meteohub,2013-08-12 21:38:00,
2013-08-12 11:43:00,77.4,75.6,29.06,NW,315,2.0,3.0,94,0.00,,,0.01,meteohub,2013-08-12 21:43:00,
2013-08-12 11:48:00,77.4,75.7,29.06,NW,315,1.0,3.0,95,0.00,,,0.01,meteohub,2013-08-12 21:48:00,
2013-08-12 11:53:00,77.0,75.2,29.06,NW,315,2.0,2.0,94,0.00,,,0.01,meteohub,2013-08-12 21:53:00,
2013-08-12 11:58:00,76.8,75.6,29.06,NW,315,2.0,4.0,96,0.00,,,0.01,meteohub,2013-08-12 21:58:00,
2013-08-12 12:04:00,76.6,75.4,29.05,NW,315,3.0,4.0,96,0.00,,,0.01,meteohub,2013-08-12 22:04:00,
2013-08-12 12:09:00,76.5,75.2,29.05,NW,315,1.0,4.0,96,0.00,,,0.01,meteohub,2013-08-12 22:09:00,
2013-08-12 12:14:00,76.5,75.6,29.05,NW,315,1.0,4.0,97,0.00,,,0.01,meteohub,2013-08-12 22:14:00,
2013-08-12 12:19:00,76.6,75.7,29.05,NW,315,3.0,3.0,97,0.00,,,0.01,meteohub,2013-08-12 22:19:00,
2013-08-12 12:24:00,76.3,75.4,29.05,NW,315,2.0,3.0,97,0.00,,,0.01,meteohub,2013-08-12 22:24:00,
2013-08-12 12:29:00,76.1,75.6,29.05,NW,315,2.0,4.0,98,0.00,,,0.01,meteohub,2013-08-12 22:29:00,
2013-08-12 12:34:00,75.7,75.4,29.05,NW,315,1.0,4.0,99,0.00,,,0.01,meteohub,2013-08-12 22:34:00,
2013-08-12 12:39:00,75.7,75.4,29.05,NW,315,2.0,4.0,99,0.00,,,0.01,meteohub,2013-08-12 22:39:00,
2013-08-12 12:44:00,75.4,75.0,29.05,NW,315,2.0,4.0,99,0.00,,,0.01,meteohub,2013-08-12 22:44:00,
2013-08-12 12:49:00,75.4,75.0,29.05,West,270,2.0,4.0,99,0.00,,,0.01,meteohub,2013-08-12 22:49:00,
2013-08-12 12:54:00,75.4,75.0,29.05,West,270,2.0,3.0,99,0.00,,,0.01,meteohub,2013-08-12 22:54:00,
2013-08-12 12:59:00,75.6,75.2,29.04,West,270,2.0,3.0,99,0.00,,,0.01,meteohub,2013-08-12 22:59:00,
2013-08-12 13:04:00,75.4,75.0,29.04,NW,315,2.0,2.0,99,0.00,,,0.01,meteohub,2013-08-12 23:04:00,
2013-08-12 13:09:00,75.4,75.0,29.05,NW,315,1.0,3.0,99,0.00,,,0.01,meteohub,2013-08-12 23:09:00,
2013-08-12 13:14:00,75.6,75.2,29.05,NW,315,1.0,3.0,99,0.00,,,0.01,meteohub,2013-08-12 23:14:00,
2013-08-12 13:19:00,75.7,75.4,29.05,NW,315,2.0,3.0,99,0.00,,,0.01,meteohub,2013-08-12 23:19:00,
2013-08-12 13:24:00,75.6,75.2,29.04,NW,315,2.0,2.0,99,0.00,,,0.01,meteohub,2013-08-12 23:24:00,
2013-08-12 13:29:00,75.4,75.0,29.04,NW,315,1.0,2.0,99,0.00,,,0.01,meteohub,2013-08-12 23:29:00,
2013-08-12 13:34:00,75.4,75.0,29.04,NW,315,0.0,2.0,99,0.00,,,0.01,meteohub,2013-08-12 23:34:00,
2013-08-12 13:39:00,75.4,75.0,29.04,NW,315,2.0,2.0,99,0.00,,,0.01,meteohub,2013-08-12 23:39:00,
2013-08-12 13:44:00,75.2,74.8,29.03,NW,315,0.0,2.0,99,0.00,,,0.01,meteohub,2013-08-12 23:44:00,
2013-08-12 13:49:00,75.2,74.8,29.03,NW,315,1.0,2.0,99,0.00,,,0.01,meteohub,2013-08-12 23:49:00,
2013-08-12 13:54:00,75.4,75.0,29.04,NW,315,0.0,3.0,99,0.00,,,0.01,meteohub,2013-08-12 23:54:00,
2013-08-12 13:59:00,75.4,75.0,29.04,NW,315,0.0,3.0,99,0.00,,,0.01,meteohub,2013-08-12 23:59:00,
2013-08-12 14:04:00,75.2,74.8,29.04,NW,315,3.0,3.0,99,0.00,,,0.01,meteohub,2013-08-13 00:04:00,
2013-08-12 14:09:00,74.8,74.5,29.04,NW,315,1.0,2.0,99,0.00,,,0.01,meteohub,2013-08-13 00:09:00,
2013-08-12 14:15:00,74.7,74.3,29.04,NW,315,2.0,3.0,99,0.00,,,0.01,meteohub,2013-08-13 00:15:00,
2013-08-12 14:20:00,74.3,73.9,29.04,NW,315,2.0,3.0,99,0.00,,,0.01,meteohub,2013-08-13 00:20:00,
2013-08-12 14:25:00,74.3,73.9,29.03,NW,315,0.0,2.0,99,0.00,,,0.01,meteohub,2013-08-13 00:25:00,
2013-08-12 14:30:00,74.3,73.9,29.03,NW,315,2.0,2.0,99,0.00,,,0.01,meteohub,2013-08-13 00:30:00,
2013-08-12 14:35:00,74.1,73.8,29.03,NW,315,2.0,2.0,99,0.00,,,0.01,meteohub,2013-08-13 00:35:00,
2013-08-12 14:40:00,74.1,73.8,29.03,NW,315,1.0,2.0,99,0.00,,,0.01,meteohub,2013-08-13 00:40:00,
2013-08-12 14:45:00,74.5,74.1,29.03,NW,315,2.0,2.0,99,0.00,,,0.01,meteohub,2013-08-13 00:45:00,
2013-08-12 14:50:00,74.8,74.5,29.03,West,270,2.0,2.0,99,0.00,,,0.01,meteohub,2013-08-13 00:50:00,
2013-08-12 14:55:00,75.0,74.7,29.03,NW,315,2.0,3.0,99,0.00,,,0.01,meteohub,2013-08-13 00:55:00,
2013-08-12 15:00:00,75.2,74.8,29.03,NW,315,2.0,3.0,99,0.00,,,0.01,meteohub,2013-08-13 01:00:00,
2013-08-12 15:05:00,75.4,75.0,29.03,NW,315,2.0,3.0,99,0.00,,,0.01,meteohub,2013-08-13 01:05:00,
2013-08-12 15:10:00,75.6,75.2,29.03,NW,315,2.0,2.0,99,0.00,,,0.01,meteohub,2013-08-13 01:10:00,
2013-08-12 15:15:00,75.7,75.4,29.02,NW,315,2.0,2.0,99,0.00,,,0.01,meteohub,2013-08-13 01:15:00,
2013-08-12 15:20:00,75.9,75.6,29.02,NW,315,2.0,2.0,99,0.00,,,0.01,meteohub,2013-08-13 01:20:00,
2013-08-12 15:25:00,75.9,75.6,29.02,NW,315,2.0,3.0,99,0.00,,,0.01,meteohub,2013-08-13 01:25:00,
2013-08-12 15:30:00,75.9,75.6,29.02,West,270,2.0,3.0,99,0.00,,,0.01,meteohub,2013-08-13 01:30:00,
2013-08-12 15:35:00,75.9,75.6,29.02,NW,315,2.0,3.0,99,0.00,,,0.01,meteohub,2013-08-13 01:35:00,
2013-08-12 15:40:00,75.9,75.6,29.02,NW,315,2.0,3.0,99,0.00,,,0.01,meteohub,2013-08-13 01:40:00,
2013-08-12 15:45:00,75.9,75.6,29.01,West,270,2.0,2.0,99,0.00,,,0.01,meteohub,2013-08-13 01:45:00,
2013-08-12 15:50:00,75.7,75.4,29.02,West,270,3.0,3.0,99,0.00,,,0.01,meteohub,2013-08-13 01:50:00,
2013-08-12 15:55:00,75.4,75.0,29.02,West,270,2.0,3.0,99,0.00,,,0.01,meteohub,2013-08-13 01:55:00,
2013-08-12 16:00:00,75.0,74.7,29.02,West,270,0.0,3.0,99,0.00,,,0.01,meteohub,2013-08-13 02:00:00,
2013-08-12 16:05:00,75.0,74.7,29.02,West,270,0.0,3.0,99,0.00,,,0.01,meteohub,2013-08-13 02:05:00,
2013-08-12 16:10:00,75.0,74.7,29.02,West,270,0.0,3.0,99,0.00,,,0.01,meteohub,2013-08-13 02:10:00,
2013-08-12 16:15:00,75.0,74.7,29.01,West,270,0.0,1.0,99,0.00,,,0.01,meteohub,2013-08-13 02:15:00,
2013-08-12 16:20:00,75.2,74.8,29.02,West,270,1.0,2.0,99,0.00,,,0.01,meteohub,2013-08-13 02:20:00,
2013-08-12 16:25:00,75.2,74.8,29.01,West,270,0.0,2.0,99,0.00,,,0.01,meteohub,2013-08-13 02:25:00,
2013-08-12 16:30:00,74.8,74.5,29.01,West,270,2.0,2.0,99,0.00,,,0.01,meteohub,2013-08-13 02:30:00,
2013-08-12 16:35:00,74.5,74.1,29.01,West,270,0.0,2.0,99,0.00,,,0.01,meteohub,2013-08-13 02:35:00,
2013-08-12 16:40:00,73.9,73.6,29.01,West,270,2.0,3.0,99,0.00,,,0.01,meteohub,2013-08-13 02:40:00,
2013-08-12 16:45:00,73.8,73.4,29.01,West,270,2.0,3.0,99,0.00,,,0.01,meteohub,2013-08-13 02:45:00,
2013-08-12 16:50:00,73.6,73.2,29.01,West,270,0.0,3.0,99,0.00,,,0.01,meteohub,2013-08-13 02:50:00,
2013-08-12 16:55:00,73.6,73.2,29.01,West,270,1.0,2.0,99,0.00,,,0.01,meteohub,2013-08-13 02:55:00,
2013-08-12 17:00:00,73.6,73.2,29.02,West,270,0.0,2.0,99,0.00,,,0.01,meteohub,2013-08-13 03:00:00,
2013-08-12 17:06:00,73.4,73.0,29.02,West,270,0.0,1.0,99,0.00,,,0.01,meteohub,2013-08-13 03:06:00,
2013-08-12 17:11:00,73.2,72.9,29.02,West,270,0.0,1.0,99,0.00,,,0.01,meteohub,2013-08-13 03:11:00,
2013-08-12 17:16:00,73.2,72.9,29.02,West,270,0.0,1.0,99,0.00,,,0.01,meteohub,2013-08-13 03:16:00,
2013-08-12 17:21:00,73.2,72.9,29.02,West,270,0.0,1.0,99,0.00,,,0.01,meteohub,2013-08-13 03:21:00,
2013-08-12 17:26:00,73.0,72.7,29.02,West,270,1.0,2.0,99,0.00,,,0.01,meteohub,2013-08-13 03:26:00,
2013-08-12 17:31:00,72.9,72.5,29.02,West,270,0.0,2.0,99,0.00,,,0.01,meteohub,2013-08-13 03:31:00,
2013-08-12 17:36:00,72.9,72.5,29.03,West,270,0.0,2.0,99,0.00,,,0.01,meteohub,2013-08-13 03:36:00,
2013-08-12 17:41:00,72.9,72.5,29.03,West,270,1.0,2.0,99,0.00,,,0.01,meteohub,2013-08-13 03:41:00,
2013-08-12 17:46:00,73.0,72.7,29.03,West,270,0.0,1.0,99,0.00,,,0.01,meteohub,2013-08-13 03:46:00,
2013-08-12 17:52:00,72.9,72.5,29.03,West,270,0.0,1.0,99,0.00,,,0.01,meteohub,2013-08-13 03:52:00,
2013-08-12 17:57:00,72.9,72.5,29.03,West,270,0.0,1.0,99,0.00,,,0.01,meteohub,2013-08-13 03:57:00,
2013-08-12 18:01:00,72.9,72.5,29.03,West,270,0.0,1.0,99,0.00,,,0.01,meteohub,2013-08-13 04:01:00,
2013-08-12 18:02:00,72.9,72.5,29.03,West,270,1.0,1.0,99,0.00,,,0.01,meteohub,2013-08-13 04:02:00,
2013-08-12 18:07:00,72.9,72.5,29.03,West,270,0.0,1.0,99,0.00,,,0.01,meteohub,2013-08-13 04:07:00,
2013-08-12 18:12:00,72.9,72.5,29.03,West,270,1.0,1.0,99,0.00,,,0.01,meteohub,2013-08-13 04:12:00,
2013-08-12 18:17:00,72.9,72.5,29.03,West,270,0.0,2.0,99,0.00,,,0.01,meteohub,2013-08-13 04:17:00,
2013-08-12 18:22:00,72.7,72.3,29.03,West,270,0.0,2.0,99,0.00,,,0.01,meteohub,2013-08-13 04:22:00,
2013-08-12 18:27:00,72.7,72.3,29.04,South,180,2.0,4.0,99,0.00,,,0.01,meteohub,2013-08-13 04:27:00,
2013-08-12 18:32:00,72.5,72.1,29.04,South,180,3.0,4.0,99,0.00,,,0.01,meteohub,2013-08-13 04:32:00,
2013-08-12 18:37:00,72.3,72.0,29.05,SE,135,2.0,4.0,99,0.00,,,0.01,meteohub,2013-08-13 04:37:00,
2013-08-12 18:42:00,72.1,71.8,29.05,SE,135,2.0,4.0,99,0.00,,,0.01,meteohub,2013-08-13 04:42:00,
2013-08-12 18:47:00,72.0,71.6,29.05,SE,135,1.0,4.0,99,0.00,,,0.01,meteohub,2013-08-13 04:47:00,
2013-08-12 18:52:00,72.0,71.6,29.05,SE,135,2.0,4.0,99,0.00,,,0.01,meteohub,2013-08-13 04:52:00,
2013-08-12 18:57:00,72.0,71.6,29.05,SE,135,2.0,4.0,99,0.00,,,0.01,meteohub,2013-08-13 04:57:00,
2013-08-12 19:02:00,71.8,71.4,29.06,SE,135,2.0,4.0,99,0.00,,,0.01,meteohub,2013-08-13 05:02:00,
2013-08-12 19:07:00,71.8,71.4,29.05,South,180,3.0,3.0,99,0.00,,,0.01,meteohub,2013-08-13 05:07:00,
2013-08-12 19:12:00,71.8,71.4,29.06,SE,135,2.0,3.0,99,0.00,,,0.01,meteohub,2013-08-13 05:12:00,
2013-08-12 19:17:00,71.8,71.4,29.06,SE,135,0.0,4.0,99,0.00,,,0.01,meteohub,2013-08-13 05:17:00,
2013-08-12 19:23:00,71.6,71.2,29.06,SE,135,2.0,4.0,99,0.00,,,0.01,meteohub,2013-08-13 05:23:00,
2013-08-12 19:28:00,71.6,71.2,29.06,SE,135,2.0,4.0,99,0.00,,,0.01,meteohub,2013-08-13 05:28:00,
2013-08-12 19:33:00,71.6,71.2,29.06,SE,135,0.0,2.0,99,0.00,,,0.01,meteohub,2013-08-13 05:33:00,
2013-08-12 19:38:00,71.6,71.2,29.06,SE,135,1.0,2.0,99,0.00,,,0.01,meteohub,2013-08-13 05:38:00,
2013-08-12 19:43:00,71.4,71.1,29.06,SE,135,0.0,2.0,99,0.00,,,0.01,meteohub,2013-08-13 05:43:00,
2013-08-12 19:48:00,71.4,71.1,29.06,SE,135,0.0,1.0,99,0.00,,,0.01,meteohub,2013-08-13 05:48:00,
2013-08-12 19:53:00,71.2,70.9,29.06,SE,135,0.0,1.0,99,0.00,,,0.01,meteohub,2013-08-13 05:53:00,
2013-08-12 19:58:00,71.1,70.7,29.06,SE,135,0.0,2.0,99,0.00,,,0.01,meteohub,2013-08-13 05:58:00,
2013-08-12 20:03:00,71.1,70.7,29.06,SE,135,0.0,2.0,99,0.00,,,0.01,meteohub,2013-08-13 06:03:00,
2013-08-12 20:08:00,70.9,70.5,29.07,SE,135,0.0,0.0,99,0.00,,,0.01,meteohub,2013-08-13 06:08:00,
2013-08-12 20:13:00,70.7,70.3,29.07,SE,135,0.0,1.0,99,0.00,,,0.01,meteohub,2013-08-13 06:13:00,
2013-08-12 20:18:00,70.5,70.2,29.07,SE,135,0.0,1.0,99,0.00,,,0.01,meteohub,2013-08-13 06:18:00,
2013-08-12 20:23:00,70.5,70.2,29.07,SE,135,1.0,1.0,99,0.00,,,0.01,meteohub,2013-08-13 06:23:00,
2013-08-12 20:28:00,70.3,70.0,29.07,SE,135,0.0,1.0,99,0.00,,,0.01,meteohub,2013-08-13 06:28:00,
2013-08-12 20:33:00,70.3,70.0,29.08,SE,135,0.0,1.0,99,0.00,,,0.01,meteohub,2013-08-13 06:33:00,
2013-08-12 20:38:00,70.3,70.0,29.07,SE,135,1.0,1.0,99,0.00,,,0.01,meteohub,2013-08-13 06:38:00,
2013-08-12 20:43:00,70.3,70.0,29.08,East,90,3.0,3.0,99,0.00,,,0.01,meteohub,2013-08-13 06:43:00,
2013-08-12 20:48:00,70.3,70.0,29.08,East,90,1.0,3.0,99,0.00,,,0.01,meteohub,2013-08-13 06:48:00,
2013-08-12 20:53:00,70.3,70.0,29.08,East,90,0.0,3.0,99,0.00,,,0.01,meteohub,2013-08-13 06:53:00,
2013-08-12 20:58:00,70.3,70.0,29.08,East,90,0.0,3.0,99,0.00,,,0.01,meteohub,2013-08-13 06:58:00,
2013-08-12 21:03:00,70.3,70.0,29.08,East,90,0.0,2.0,99,0.00,,,0.01,meteohub,2013-08-13 07:03:00,
2013-08-12 21:08:00,70.3,70.0,29.08,East,90,0.0,0.0,99,0.00,,,0.01,meteohub,2013-08-13 07:08:00,
2013-08-12 21:13:00,70.3,70.0,29.08,East,90,0.0,0.0,99,0.00,,,0.01,meteohub,2013-08-13 07:13:00,
2013-08-12 21:18:00,70.3,70.0,29.08,East,90,0.0,1.0,99,0.00,,,0.01,meteohub,2013-08-13 07:18:00,
2013-08-12 21:23:00,70.5,70.2,29.08,East,90,0.0,1.0,99,0.00,,,0.01,meteohub,2013-08-13 07:23:00,
2013-08-12 21:28:00,70.5,70.2,29.08,East,90,0.0,1.0,99,0.00,,,0.01,meteohub,2013-08-13 07:28:00,
2013-08-12 21:33:00,70.5,70.2,29.08,East,90,0.0,0.0,99,0.00,,,0.01,meteohub,2013-08-13 07:33:00,
2013-08-12 21:38:00,70.5,70.2,29.08,East,90,0.0,0.0,99,0.00,,,0.01,meteohub,2013-08-13 07:38:00,
2013-08-12 21:43:00,70.5,70.2,29.08,East,90,0.0,0.0,99,0.00,,,0.01,meteohub,2013-08-13 07:43:00,
2013-08-12 21:48:00,70.5,70.2,29.09,East,90,0.0,0.0,99,0.00,,,0.01,meteohub,2013-08-13 07:48:00,
2013-08-12 21:53:00,70.3,70.0,29.09,East,90,0.0,1.0,99,0.00,,,0.01,meteohub,2013-08-13 07:53:00,
2013-08-12 21:58:00,70.2,69.8,29.09,East,90,0.0,1.0,99,0.00,,,0.01,meteohub,2013-08-13 07:58:00,
2013-08-12 22:03:00,70.2,69.8,29.09,East,90,0.0,1.0,99,0.00,,,0.01,meteohub,2013-08-13 08:03:00,
2013-08-12 22:08:00,70.0,69.6,29.09,East,90,0.0,1.0,99,0.00,,,0.01,meteohub,2013-08-13 08:08:00,
2013-08-12 22:13:00,70.0,69.6,29.09,East,90,0.0,0.0,99,0.00,,,0.01,meteohub,2013-08-13 08:13:00,
2013-08-12 22:18:00,70.0,69.6,29.10,East,90,0.0,0.0,99,0.00,,,0.01,meteohub,2013-08-13 08:18:00,
2013-08-12 22:23:00,70.0,69.6,29.10,East,90,0.0,0.0,99,0.00,,,0.01,meteohub,2013-08-13 08:23:00,
2013-08-12 22:28:00,70.0,69.6,29.10,East,90,0.0,0.0,99,0.00,,,0.01,meteohub,2013-08-13 08:28:00,
2013-08-12 22:33:00,70.0,69.6,29.09,East,90,0.0,0.0,99,0.00,,,0.01,meteohub,2013-08-13 08:33:00,
2013-08-12 22:38:00,70.0,69.6,29.10,East,90,0.0,1.0,99,0.00,,,0.01,meteohub,2013-08-13 08:38:00,
2013-08-12 22:43:00,70.0,69.6,29.09,East,90,0.0,1.0,99,0.00,,,0.01,meteohub,2013-08-13 08:43:00,
2013-08-12 22:48:00,70.0,69.6,29.08,East,90,0.0,1.0,99,0.00,,,0.01,meteohub,2013-08-13 08:48:00,
2013-08-12 22:53:00,70.2,69.8,29.09,East,90,1.0,0.0,99,0.00,,,0.01,meteohub,2013-08-13 08:53:00,
2013-08-12 22:59:00,70.3,70.0,29.09,East,90,1.0,1.0,99,0.00,,,0.01,meteohub,2013-08-13 08:59:00,
2013-08-12 23:04:00,70.3,70.0,29.08,East,90,0.0,2.0,99,0.00,,,0.01,meteohub,2013-08-13 09:04:00,
2013-08-12 23:09:00,70.5,70.2,29.08,East,90,1.0,2.0,99,0.00,,,0.01,meteohub,2013-08-13 09:09:00,
2013-08-12 23:14:00,70.5,70.2,29.08,East,90,0.0,2.0,99,0.00,,,0.01,meteohub,2013-08-13 09:14:00,
2013-08-12 23:19:00,70.5,70.2,29.08,East,90,2.0,2.0,99,0.00,,,0.01,meteohub,2013-08-13 09:19:00,
2013-08-12 23:24:00,70.5,70.2,29.08,East,90,1.0,2.0,99,0.00,,,0.01,meteohub,2013-08-13 09:24:00,
2013-08-12 23:29:00,70.5,70.2,29.08,East,90,1.0,3.0,99,0.00,,,0.01,meteohub,2013-08-13 09:29:00,
2013-08-12 23:34:00,70.5,70.2,29.08,East,90,0.0,3.0,99,0.00,,,0.01,meteohub,2013-08-13 09:34:00,
2013-08-12 23:39:00,70.7,70.3,29.08,East,90,0.0,1.0,99,0.00,,,0.01,meteohub,2013-08-13 09:39:00,
2013-08-12 23:44:00,70.5,70.2,29.08,East,90,1.0,1.0,99,0.00,,,0.01,meteohub,2013-08-13 09:44:00,
2013-08-12 23:49:00,70.3,70.0,29.08,East,90,1.0,1.0,99,0.00,,,0.01,meteohub,2013-08-13 09:49:00,
2013-08-12 23:54:00,70.2,69.8,29.08,East,90,1.0,1.0,99,0.01,,,0.02,meteohub,2013-08-13 09:54:00,
2013-08-12 23:59:00,70.0,69.6,29.07,East,90,0.0,2.0,99,0.01,,,0.02,meteohub,2013-08-13 09:59:00,